Webcam & Weather

This webcam image will automatically refresh every 15 seconds.


METAR and TAF for EGLL Heathrow (12 Nautical Miles East of White Waltham)

METAR FOR EGLL (Issued: Thu, July 28th 2016 9:50 AM UTC):
EGLL 280950Z AUTO VRB06KT 9999 FEW035 20/11 Q1015

TAF FOR EGLL (Issued: Thu, July 28th 2016 6:16 AM UTC):
TAF EGLL 280507Z 2806/2912 31004KT 9999 SCT040 BECMG 2809/2812 21012KT TEMPO 2813/2818 7000 RADZ BKN012 PROB30 TEMPO 2815/2820 4000 +SHRA BKN008 BECMG 2821/2824 27008KT PROB30 TEMPO 2902/2906 BKN012 TEMPO 2909/2912 8000 SHRA

Play 24 hour timelapse | Play 30 day timelapse

Comments are closed.